sensor_id;sensor_type;location;lat;lon;timestamp;pressure;altitude;pressure_sealevel;temperature;humidity
25650;BME280;13505;45.196;5.696;2022-07-10T04:01:55;99579.53;;;20.56;57.72
25650;BME280;13505;45.196;5.696;2022-07-10T04:06:45;99581.59;;;20.52;57.81
25650;BME280;13505;45.196;5.696;2022-07-10T04:11:36;99577.81;;;20.55;57.34
25650;BME280;13505;45.196;5.696;2022-07-10T04:16:26;99590.84;;;20.59;58.16
25650;BME280;13505;45.196;5.696;2022-07-10T04:21:17;99586.13;;;20.52;58.33
25650;BME280;13505;45.196;5.696;2022-07-10T04:26:07;99591.00;;;20.46;58.23
25650;BME280;13505;45.196;5.696;2022-07-10T04:30:58;99583.22;;;20.43;58.61
25650;BME280;13505;45.196;5.696;2022-07-10T04:35:48;99592.72;;;20.25;59.48
25650;BME280;13505;45.196;5.696;2022-07-10T04:40:38;99590.66;;;20.17;60.42
25650;BME280;13505;45.196;5.696;2022-07-10T04:45:29;99589.56;;;20.19;60.02
25650;BME280;13505;45.196;5.696;2022-07-10T04:50:19;99596.13;;;20.15;60.32
25650;BME280;13505;45.196;5.696;2022-07-10T04:55:09;99595.28;;;20.03;60.07
25650;BME280;13505;45.196;5.696;2022-07-10T05:00:00;99598.44;;;19.97;60.45
25650;BME280;13505;45.196;5.696;2022-07-10T05:04:50;99594.19;;;20.17;59.62
25650;BME280;13505;45.196;5.696;2022-07-10T05:09:40;99588.59;;;20.20;58.91
25650;BME280;13505;45.196;5.696;2022-07-10T05:14:31;99594.31;;;20.16;61.25
25650;BME280;13505;45.196;5.696;2022-07-10T05:19:22;99595.28;;;20.26;59.54
25650;BME280;13505;45.196;5.696;2022-07-10T05:24:12;99580.53;;;20.43;59.73
25650;BME280;13505;45.196;5.696;2022-07-10T05:29:02;99582.94;;;20.46;58.39
25650;BME280;13505;45.196;5.696;2022-07-10T05:33:53;99574.09;;;20.34;58.71
25650;BME280;13505;45.196;5.696;2022-07-10T05:38:43;99585.75;;;20.56;59.75
25650;BME280;13505;45.196;5.696;2022-07-10T05:43:34;99591.66;;;20.94;57.79
25650;BME280;13505;45.196;5.696;2022-07-10T05:48:24;99589.63;;;21.08;57.06
25650;BME280;13505;45.196;5.696;2022-07-10T05:53:14;99590.50;;;21.29;55.91
25650;BME280;13505;45.196;5.696;2022-07-10T05:58:05;99583.00;;;21.44;55.82
25650;BME280;13505;45.196;5.696;2022-07-10T06:02:55;99595.00;;;21.83;54.29
25650;BME280;13505;45.196;5.696;2022-07-10T06:07:45;99589.44;;;22.06;53.57
25650;BME280;13505;45.196;5.696;2022-07-10T06:12:36;99582.44;;;22.75;51.57
25650;BME280;13505;45.196;5.696;2022-07-10T06:17:27;99598.19;;;23.19;49.71
25650;BME280;13505;45.196;5.696;2022-07-10T06:22:17;99589.41;;;23.47;48.98
25650;BME280;13505;45.196;5.696;2022-07-10T06:27:23;99585.19;;;23.92;47.86
25650;BME280;13505;45.196;5.696;2022-07-10T06:32:14;99583.28;;;24.12;46.59
25650;BME280;13505;45.196;5.696;2022-07-10T06:37:04;99582.84;;;24.45;46.23
25650;BME280;13505;45.196;5.696;2022-07-10T06:41:55;99577.38;;;24.83;44.55
25650;BME280;13505;45.196;5.696;2022-07-10T06:46:48;99569.84;;;24.58;43.98
25650;BME280;13505;45.196;5.696;2022-07-10T06:51:59;99574.03;;;25.25;43.62
25650;BME280;13505;45.196;5.696;2022-07-10T06:56:49;99571.66;;;25.67;42.37
25650;BME280;13505;45.196;5.696;2022-07-10T07:01:39;99558.94;;;25.59;42.80
25650;BME280;13505;45.196;5.696;2022-07-10T07:06:30;99561.03;;;26.00;41.04
25650;BME280;13505;45.196;5.696;2022-07-10T07:11:20;99560.94;;;26.18;40.52
25650;BME280;13505;45.196;5.696;2022-07-10T07:16:10;99552.94;;;26.35;40.94
25650;BME280;13505;45.196;5.696;2022-07-10T07:21:04;99548.47;;;26.85;39.57
25650;BME280;13505;45.196;5.696;2022-07-10T07:26:13;99547.16;;;27.14;38.93
25650;BME280;13505;45.196;5.696;2022-07-10T07:31:04;99544.28;;;27.15;38.79
25650;BME280;13505;45.196;5.696;2022-07-10T07:35:55;99534.75;;;27.61;37.28
25650;BME280;13505;45.196;5.696;2022-07-10T07:40:45;99542.50;;;27.81;36.95
25650;BME280;13505;45.196;5.696;2022-07-10T07:45:35;99533.75;;;27.62;37.08
25650;BME280;13505;45.196;5.696;2022-07-10T07:50:30;99536.66;;;27.11;38.33
25650;BME280;13505;45.196;5.696;2022-07-10T07:55:23;99529.41;;;27.93;36.99
25650;BME280;13505;45.196;5.696;2022-07-10T08:00:14;99517.97;;;28.54;35.39
25650;BME280;13505;45.196;5.696;2022-07-10T08:05:08;99523.03;;;29.04;34.64
25650;BME280;13505;45.196;5.696;2022-07-10T08:09:59;99517.59;;;28.80;34.92
25650;BME280;13505;45.196;5.696;2022-07-10T08:14:49;99511.56;;;29.32;33.77
25650;BME280;13505;45.196;5.696;2022-07-10T08:19:39;99501.81;;;29.22;33.43
25650;BME280;13505;45.196;5.696;2022-07-10T08:24:30;99493.34;;;29.86;32.55
25650;BME280;13505;45.196;5.696;2022-07-10T08:29:20;99490.31;;;29.35;34.23
25650;BME280;13505;45.196;5.696;2022-07-10T08:34:11;99481.09;;;30.27;31.82
25650;BME280;13505;45.196;5.696;2022-07-10T08:39:01;99475.44;;;30.06;32.64
25650;BME280;13505;45.196;5.696;2022-07-10T08:43:52;99464.41;;;29.78;33.58
25650;BME280;13505;45.196;5.696;2022-07-10T08:48:47;99471.50;;;29.34;33.67
25650;BME280;13505;45.196;5.696;2022-07-10T08:53:38;99458.94;;;29.33;34.55
25650;BME280;13505;45.196;5.696;2022-07-10T08:58:31;99462.91;;;28.92;34.99
25650;BME280;13505;45.196;5.696;2022-07-10T09:03:22;99447.88;;;30.53;32.56
25650;BME280;13505;45.196;5.696;2022-07-10T09:08:27;99437.91;;;30.60;33.08
25650;BME280;13505;45.196;5.696;2022-07-10T09:13:18;99433.88;;;31.28;32.36
25650;BME280;13505;45.196;5.696;2022-07-10T09:18:09;99429.81;;;30.45;33.04
25650;BME280;13505;45.196;5.696;2022-07-10T09:23:17;99431.88;;;29.85;34.25
25650;BME280;13505;45.196;5.696;2022-07-10T09:28:08;99426.31;;;29.93;33.95
25650;BME280;13505;45.196;5.696;2022-07-10T09:38:08;99428.25;;;29.99;33.80
25650;BME280;13505;45.196;5.696;2022-07-10T09:42:58;99413.91;;;30.92;33.02
25650;BME280;13505;45.196;5.696;2022-07-10T09:47:58;99408.69;;;32.10;31.20
25650;BME280;13505;45.196;5.696;2022-07-10T09:52:53;99404.00;;;31.91;30.96
25650;BME280;13505;45.196;5.696;2022-07-10T09:57:45;99410.22;;;32.80;30.09
25650;BME280;13505;45.196;5.696;2022-07-10T10:02:40;99401.97;;;33.27;29.08
25650;BME280;13505;45.196;5.696;2022-07-10T10:07:32;99392.78;;;32.81;29.64
25650;BME280;13505;45.196;5.696;2022-07-10T10:12:42;99384.75;;;33.86;28.13
25650;BME280;13505;45.196;5.696;2022-07-10T10:17:35;99374.47;;;33.81;27.50
25650;BME280;13505;45.196;5.696;2022-07-10T10:22:27;99370.13;;;34.06;27.27
25650;BME280;13505;45.196;5.696;2022-07-10T10:27:18;99366.25;;;34.46;27.19
25650;BME280;13505;45.196;5.696;2022-07-10T10:32:09;99363.72;;;33.80;27.38
25650;BME280;13505;45.196;5.696;2022-07-10T10:36:59;99364.66;;;34.38;27.20
25650;BME280;13505;45.196;5.696;2022-07-10T10:41:53;99359.94;;;34.71;27.14
25650;BME280;13505;45.196;5.696;2022-07-10T11:02:29;99345.88;;;34.67;27.02
25650;BME280;13505;45.196;5.696;2022-07-10T11:13:03;99336.50;;;35.00;26.83
25650;BME280;13505;45.196;5.696;2022-07-10T11:17:55;99319.50;;;34.91;26.36
25650;BME280;13505;45.196;5.696;2022-07-10T11:32:51;99302.63;;;34.50;27.00
25650;BME280;13505;45.196;5.696;2022-07-10T11:37:52;99293.91;;;34.60;27.78
25650;BME280;13505;45.196;5.696;2022-07-10T11:42:53;99309.16;;;34.93;26.87
25650;BME280;13505;45.196;5.696;2022-07-10T11:47:43;99290.22;;;34.92;27.25
25650;BME280;13505;45.196;5.696;2022-07-10T11:52:36;99287.03;;;35.14;27.16
25650;BME280;13505;45.196;5.696;2022-07-10T11:57:26;99283.44;;;35.13;26.97
25650;BME280;13505;45.196;5.696;2022-07-10T12:02:22;99278.19;;;34.93;27.11
25650;BME280;13505;45.196;5.696;2022-07-10T12:07:12;99270.75;;;35.00;26.93
25650;BME280;13505;45.196;5.696;2022-07-10T12:12:04;99276.59;;;35.23;26.93
25650;BME280;13505;45.196;5.696;2022-07-10T12:16:56;99267.22;;;35.30;27.06
25650;BME280;13505;45.196;5.696;2022-07-10T12:21:47;99262.66;;;35.24;26.82
25650;BME280;13505;45.196;5.696;2022-07-10T12:26:40;99268.75;;;35.26;26.92
25650;BME280;13505;45.196;5.696;2022-07-10T12:31:37;99269.34;;;35.28;27.05
25650;BME280;13505;45.196;5.696;2022-07-10T12:42:02;99261.50;;;35.32;27.15
25650;BME280;13505;45.196;5.696;2022-07-10T12:47:02;99257.66;;;35.52;26.78
25650;BME280;13505;45.196;5.696;2022-07-10T12:51:52;99262.09;;;35.34;26.28
25650;BME280;13505;45.196;5.696;2022-07-10T12:56:42;99236.13;;;35.37;26.82
25650;BME280;13505;45.196;5.696;2022-07-10T13:01:45;99238.31;;;35.46;26.00
25650;BME280;13505;45.196;5.696;2022-07-10T13:06:37;99244.28;;;35.13;26.98
25650;BME280;13505;45.196;5.696;2022-07-10T13:11:28;99241.66;;;34.99;27.28
25650;BME280;13505;45.196;5.696;2022-07-10T13:16:18;99233.91;;;35.15;27.31
25650;BME280;13505;45.196;5.696;2022-07-10T13:21:09;99226.84;;;35.07;26.45
25650;BME280;13505;45.196;5.696;2022-07-10T13:26:01;99234.41;;;35.24;27.11
25650;BME280;13505;45.196;5.696;2022-07-10T13:30:52;99232.16;;;35.20;26.68
25650;BME280;13505;45.196;5.696;2022-07-10T13:35:43;99226.44;;;35.22;27.58
25650;BME280;13505;45.196;5.696;2022-07-10T13:40:35;99227.03;;;35.24;27.26
25650;BME280;13505;45.196;5.696;2022-07-10T13:45:26;99210.44;;;35.19;27.25
25650;BME280;13505;45.196;5.696;2022-07-10T13:50:33;99205.50;;;35.28;27.31
25650;BME280;13505;45.196;5.696;2022-07-10T13:55:23;99198.69;;;34.81;27.37
25650;BME280;13505;45.196;5.696;2022-07-10T14:00:13;99204.16;;;34.62;28.51
25650;BME280;13505;45.196;5.696;2022-07-10T14:05:05;99202.66;;;34.85;27.82
25650;BME280;13505;45.196;5.696;2022-07-10T14:09:58;99189.69;;;34.92;27.66
25650;BME280;13505;45.196;5.696;2022-07-10T14:14:48;99190.47;;;34.81;27.79
25650;BME280;13505;45.196;5.696;2022-07-10T14:19:38;99187.38;;;34.59;28.10
25650;BME280;13505;45.196;5.696;2022-07-10T14:24:31;99190.44;;;34.25;28.50
25650;BME280;13505;45.196;5.696;2022-07-10T14:29:22;99174.75;;;34.58;28.56
25650;BME280;13505;45.196;5.696;2022-07-10T14:34:12;99173.19;;;34.43;28.29
25650;BME280;13505;45.196;5.696;2022-07-10T14:39:03;99183.75;;;34.40;29.06
25650;BME280;13505;45.196;5.696;2022-07-10T14:43:53;99183.44;;;34.29;29.08
25650;BME280;13505;45.196;5.696;2022-07-10T14:48:43;99202.53;;;34.36;28.82
25650;BME280;13505;45.196;5.696;2022-07-10T14:53:34;99185.56;;;34.27;28.92
25650;BME280;13505;45.196;5.696;2022-07-10T14:58:25;99181.13;;;34.07;29.13
25650;BME280;13505;45.196;5.696;2022-07-10T15:03:15;99183.97;;;34.19;29.40
25650;BME280;13505;45.196;5.696;2022-07-10T15:08:06;99181.19;;;34.01;29.51
25650;BME280;13505;45.196;5.696;2022-07-10T15:12:56;99183.13;;;34.00;29.97
25650;BME280;13505;45.196;5.696;2022-07-10T15:17:46;99175.66;;;33.82;30.25
25650;BME280;13505;45.196;5.696;2022-07-10T15:22:37;99172.03;;;33.63;30.50
25650;BME280;13505;45.196;5.696;2022-07-10T15:27:27;99186.25;;;33.46;30.72
25650;BME280;13505;45.196;5.696;2022-07-10T15:32:17;99177.88;;;33.34;30.79
25650;BME280;13505;45.196;5.696;2022-07-10T15:37:08;99158.81;;;33.27;31.02
25650;BME280;13505;45.196;5.696;2022-07-10T15:41:58;99156.06;;;33.27;31.26
25650;BME280;13505;45.196;5.696;2022-07-10T15:46:48;99151.00;;;32.92;31.80
25650;BME280;13505;45.196;5.696;2022-07-10T15:51:39;99146.56;;;32.98;31.86
25650;BME280;13505;45.196;5.696;2022-07-10T15:56:29;99156.50;;;32.79;32.30
25650;BME280;13505;45.196;5.696;2022-07-10T16:01:19;99153.81;;;32.72;32.44
25650;BME280;13505;45.196;5.696;2022-07-10T16:06:11;99150.94;;;32.53;32.76
25650;BME280;13505;45.196;5.696;2022-07-10T16:11:03;99149.91;;;32.48;33.00
25650;BME280;13505;45.196;5.696;2022-07-10T16:15:53;99141.94;;;32.46;32.99
25650;BME280;13505;45.196;5.696;2022-07-10T16:20:43;99139.91;;;32.01;33.64
25650;BME280;13505;45.196;5.696;2022-07-10T16:25:34;99139.94;;;31.94;33.79
25650;BME280;13505;45.196;5.696;2022-07-10T16:30:42;99127.34;;;32.00;34.05
25650;BME280;13505;45.196;5.696;2022-07-10T16:35:33;99128.59;;;31.77;34.47
25650;BME280;13505;45.196;5.696;2022-07-10T16:40:23;99122.28;;;31.77;34.24
25650;BME280;13505;45.196;5.696;2022-07-10T16:45:14;99117.28;;;31.73;34.71
25650;BME280;13505;45.196;5.696;2022-07-10T16:50:05;99121.88;;;31.53;35.29
25650;BME280;13505;45.196;5.696;2022-07-10T16:54:55;99116.22;;;31.27;35.63
25650;BME280;13505;45.196;5.696;2022-07-10T16:59:46;99130.41;;;31.16;35.93
25650;BME280;13505;45.196;5.696;2022-07-10T17:04:37;99127.00;;;30.94;36.48
25650;BME280;13505;45.196;5.696;2022-07-10T17:09:28;99129.72;;;31.00;36.32
25650;BME280;13505;45.196;5.696;2022-07-10T17:14:19;99124.88;;;30.82;36.55
25650;BME280;13505;45.196;5.696;2022-07-10T17:19:09;99117.09;;;30.72;37.27
25650;BME280;13505;45.196;5.696;2022-07-10T17:23:59;99123.97;;;30.68;37.23
25650;BME280;13505;45.196;5.696;2022-07-10T17:28:50;99116.16;;;30.52;37.08
25650;BME280;13505;45.196;5.696;2022-07-10T17:33:40;99122.63;;;30.44;37.50
25650;BME280;13505;45.196;5.696;2022-07-10T17:38:30;99121.72;;;30.36;37.56
25650;BME280;13505;45.196;5.696;2022-07-10T17:43:21;99129.56;;;30.18;38.32
25650;BME280;13505;45.196;5.696;2022-07-10T17:48:11;99127.44;;;30.13;38.40
25650;BME280;13505;45.196;5.696;2022-07-10T17:53:01;99119.00;;;30.01;38.34
25650;BME280;13505;45.196;5.696;2022-07-10T17:57:52;99127.84;;;29.82;38.78
25650;BME280;13505;45.196;5.696;2022-07-10T18:02:42;99134.66;;;29.71;38.88
25650;BME280;13505;45.196;5.696;2022-07-10T18:07:34;99136.50;;;29.63;39.04
25650;BME280;13505;45.196;5.696;2022-07-10T18:12:25;99138.03;;;29.51;38.81
25650;BME280;13505;45.196;5.696;2022-07-10T18:17:15;99135.88;;;29.24;39.23
25650;BME280;13505;45.196;5.696;2022-07-10T18:22:06;99142.22;;;29.10;39.10
25650;BME280;13505;45.196;5.696;2022-07-10T18:26:57;99154.03;;;29.02;39.19
25650;BME280;13505;45.196;5.696;2022-07-10T18:31:48;99155.09;;;28.86;39.29
25650;BME280;13505;45.196;5.696;2022-07-10T18:36:40;99155.34;;;28.76;39.39
25650;BME280;13505;45.196;5.696;2022-07-10T18:41:31;99167.66;;;28.57;39.05
25650;BME280;13505;45.196;5.696;2022-07-10T18:46:21;99182.16;;;28.49;39.14
25650;BME280;13505;45.196;5.696;2022-07-10T18:51:12;99174.03;;;28.34;39.09
25650;BME280;13505;45.196;5.696;2022-07-10T18:56:02;99189.06;;;28.22;38.89
25650;BME280;13505;45.196;5.696;2022-07-10T19:00:52;99186.31;;;28.07;38.39
25650;BME280;13505;45.196;5.696;2022-07-10T19:05:43;99190.19;;;27.89;38.49
25650;BME280;13505;45.196;5.696;2022-07-10T19:10:33;99195.13;;;27.85;38.56
25650;BME280;13505;45.196;5.696;2022-07-10T19:15:23;99199.94;;;27.75;38.56
25650;BME280;13505;45.196;5.696;2022-07-10T19:20:16;99203.41;;;27.69;38.43
25650;BME280;13505;45.196;5.696;2022-07-10T19:25:06;99209.59;;;27.54;38.58
25650;BME280;13505;45.196;5.696;2022-07-10T19:29:57;99214.19;;;27.45;38.87
25650;BME280;13505;45.196;5.696;2022-07-10T19:34:47;99221.34;;;27.38;38.82
25650;BME280;13505;45.196;5.696;2022-07-10T19:39:38;99225.66;;;27.24;39.23
25650;BME280;13505;45.196;5.696;2022-07-10T19:44:28;99217.91;;;27.21;39.31
25650;BME280;13505;45.196;5.696;2022-07-10T19:49:19;99231.25;;;27.23;39.16
25650;BME280;13505;45.196;5.696;2022-07-10T19:54:09;99236.56;;;27.08;39.36
25650;BME280;13505;45.196;5.696;2022-07-10T19:59:00;99235.09;;;26.97;39.80
25650;BME280;13505;45.196;5.696;2022-07-10T20:03:50;99237.13;;;26.95;39.90
25650;BME280;13505;45.196;5.696;2022-07-10T20:08:41;99243.41;;;26.87;39.85
25650;BME280;13505;45.196;5.696;2022-07-10T20:13:35;99247.31;;;26.76;39.77
25650;BME280;13505;45.196;5.696;2022-07-10T20:18:25;99250.72;;;26.70;40.23
25650;BME280;13505;45.196;5.696;2022-07-10T20:23:15;99250.91;;;26.68;40.49
25650;BME280;13505;45.196;5.696;2022-07-10T20:28:06;99252.78;;;26.59;40.24
25650;BME280;13505;45.196;5.696;2022-07-10T20:32:56;99254.50;;;26.44;41.06
25650;BME280;13505;45.196;5.696;2022-07-10T20:37:46;99256.88;;;26.47;40.72
25650;BME280;13505;45.196;5.696;2022-07-10T20:42:38;99268.00;;;26.44;40.93
25650;BME280;13505;45.196;5.696;2022-07-10T20:47:28;99263.00;;;26.24;41.19
25650;BME280;13505;45.196;5.696;2022-07-10T20:52:19;99265.00;;;26.22;41.20
25650;BME280;13505;45.196;5.696;2022-07-10T20:57:09;99271.63;;;26.19;41.23
25650;BME280;13505;45.196;5.696;2022-07-10T21:02:00;99270.41;;;26.14;41.17
25650;BME280;13505;45.196;5.696;2022-07-10T21:06:50;99277.84;;;26.03;41.31
25650;BME280;13505;45.196;5.696;2022-07-10T21:11:40;99279.16;;;25.99;41.66
25650;BME280;13505;45.196;5.696;2022-07-10T21:16:31;99275.78;;;25.97;41.28
25650;BME280;13505;45.196;5.696;2022-07-10T21:21:21;99285.59;;;25.82;41.87
25650;BME280;13505;45.196;5.696;2022-07-10T21:26:13;99272.91;;;25.82;41.59
25650;BME280;13505;45.196;5.696;2022-07-10T21:31:03;99287.28;;;25.83;41.34
25650;BME280;13505;45.196;5.696;2022-07-10T21:35:54;99272.06;;;25.73;41.86
25650;BME280;13505;45.196;5.696;2022-07-10T21:40:44;99282.50;;;25.68;41.85
25650;BME280;13505;45.196;5.696;2022-07-10T21:45:34;99277.59;;;25.63;42.05
25650;BME280;13505;45.196;5.696;2022-07-10T21:50:27;99279.81;;;25.52;42.03
25650;BME280;13505;45.196;5.696;2022-07-10T21:55:18;99288.34;;;25.47;42.40
